createdAt,value
2023-05-14T00:03:59.712Z,15.77
2023-05-14T00:09:02.267Z,15.57
2023-05-14T00:14:05.331Z,17.23
2023-05-14T00:19:07.877Z,18.40
2023-05-14T00:24:10.432Z,18.67
2023-05-14T00:29:13.044Z,18.37
2023-05-14T00:34:15.728Z,17.07
2023-05-14T00:39:18.186Z,17.67
2023-05-14T00:44:20.809Z,18.80
2023-05-14T00:49:23.793Z,17.77
2023-05-14T00:54:27.235Z,18.00
2023-05-14T00:59:29.818Z,19.47
2023-05-14T01:04:32.450Z,17.80
2023-05-14T01:09:54.985Z,17.77
2023-05-14T01:15:04.841Z,17.73
2023-05-14T01:20:08.406Z,18.00
2023-05-14T01:25:10.905Z,17.57
2023-05-14T01:30:25.849Z,17.37
2023-05-14T01:35:30.774Z,17.60
2023-05-14T01:40:35.558Z,17.07
2023-05-14T01:45:38.385Z,16.80
2023-05-14T01:50:41.047Z,17.10
2023-05-14T01:55:43.430Z,16.37
2023-05-14T02:00:45.891Z,17.40
2023-05-14T02:05:48.472Z,17.13
2023-05-14T02:10:51.071Z,16.57
2023-05-14T02:15:53.763Z,16.70
2023-05-14T02:20:57.535Z,17.63
2023-05-14T02:26:00.205Z,17.10
2023-05-14T02:31:02.724Z,16.80
2023-05-14T02:36:06.028Z,17.13
2023-05-14T02:41:08.532Z,16.80
2023-05-14T02:46:11.076Z,16.23
2023-05-14T02:51:13.620Z,17.40
2023-05-14T02:56:16.564Z,17.03
2023-05-14T03:01:19.167Z,16.50
2023-05-14T03:06:22.397Z,17.20
2023-05-14T03:11:25.176Z,18.90
2023-05-14T03:16:27.957Z,17.83
2023-05-14T03:21:31.312Z,18.90
2023-05-14T03:26:33.966Z,18.40
2023-05-14T03:31:36.972Z,18.43
2023-05-14T03:36:39.891Z,17.63
2023-05-14T03:41:42.469Z,16.30
2023-05-14T03:46:44.906Z,17.57
2023-05-14T03:51:47.442Z,17.50
2023-05-14T03:56:50.039Z,17.80
2023-05-14T04:01:52.770Z,17.10
2023-05-14T04:06:55.427Z,17.87
2023-05-14T04:11:57.881Z,17.57
2023-05-14T04:17:00.645Z,16.30
2023-05-14T04:22:03.203Z,16.43
2023-05-14T04:27:06.931Z,16.87
2023-05-14T04:32:09.584Z,16.70
2023-05-14T04:37:12.009Z,16.90
2023-05-14T04:42:14.501Z,15.87
2023-05-14T04:47:17.094Z,15.73
2023-05-14T04:52:19.733Z,16.10
2023-05-14T04:57:22.323Z,16.77
2023-05-14T05:02:25.052Z,17.50
2023-05-14T05:07:27.623Z,17.27
2023-05-14T05:12:30.281Z,16.90
2023-05-14T05:17:33.937Z,16.27
2023-05-14T05:22:36.869Z,15.40
2023-05-14T05:27:39.321Z,15.90
2023-05-14T05:32:41.889Z,16.57
2023-05-14T05:37:45.298Z,14.70
2023-05-14T05:42:47.908Z,15.47
2023-05-14T05:47:50.485Z,17.30
2023-05-14T05:52:53.354Z,15.57
2023-05-14T05:57:56.299Z,16.17
2023-05-14T06:02:58.780Z,16.17
2023-05-14T06:08:01.368Z,16.07
2023-05-14T06:13:05.966Z,18.47
2023-05-14T06:18:08.447Z,17.23
2023-05-14T06:23:12.353Z,16.70
2023-05-14T06:28:14.821Z,17.83
2023-05-14T06:33:19.290Z,18.07
2023-05-14T06:38:23.012Z,17.73
2023-05-14T06:43:25.679Z,16.13
2023-05-14T06:48:29.570Z,15.77
2023-05-14T06:53:32.176Z,16.40
2023-05-14T06:58:34.645Z,14.80
2023-05-14T07:03:37.361Z,14.10
2023-05-14T07:08:40.330Z,13.37
2023-05-14T07:13:43.323Z,13.13
2023-05-14T07:18:46.265Z,12.80
2023-05-14T07:40:22.498Z,10.03
2023-05-14T07:45:25.242Z,12.47
2023-05-14T07:50:27.802Z,10.90
2023-05-14T07:55:30.693Z,11.53
2023-05-14T08:00:33.131Z,9.23
2023-05-14T08:05:35.675Z,8.57
2023-05-14T08:10:38.544Z,9.77
2023-05-14T08:15:41.178Z,8.87
2023-05-14T08:20:43.635Z,7.90
2023-05-14T08:25:46.245Z,5.23
2023-05-14T08:30:48.781Z,5.90
2023-05-14T08:35:53.999Z,6.30
2023-05-14T08:41:00.481Z,8.97
2023-05-14T08:46:05.907Z,7.78
2023-05-14T08:51:09.404Z,4.82
2023-05-14T08:56:13.136Z,4.57
2023-05-14T09:01:15.755Z,6.80
2023-05-14T09:06:19.244Z,6.07
2023-05-14T09:11:21.881Z,5.85
2023-05-14T09:16:26.068Z,9.33
2023-05-14T09:21:29.380Z,4.73
2023-05-14T09:26:34.111Z,10.07
2023-05-14T09:31:37.434Z,4.55
2023-05-14T09:36:39.983Z,3.85
2023-05-14T09:41:42.422Z,3.90
2023-05-14T09:46:45.882Z,8.30
2023-05-14T09:51:52.172Z,9.37
2023-05-14T09:56:55.760Z,5.33
2023-05-14T10:01:59.278Z,8.07
2023-05-14T10:07:02.517Z,6.60
2023-05-14T10:12:05.670Z,7.37
2023-05-14T10:17:18.081Z,5.13
2023-05-14T10:22:24.070Z,8.07
2023-05-14T10:27:27.470Z,5.83
2023-05-14T10:32:33.125Z,7.20
2023-05-14T10:37:36.070Z,7.82
2023-05-14T10:42:43.615Z,11.07
2023-05-14T10:47:47.575Z,7.07
2023-05-14T10:52:51.352Z,8.07
2023-05-14T10:57:53.738Z,6.10
2023-05-14T11:02:57.670Z,5.82
2023-05-14T11:08:02.793Z,4.50
2023-05-14T11:13:06.087Z,4.93
2023-05-14T11:18:10.701Z,3.85
2023-05-14T11:23:13.397Z,4.60
2023-05-14T11:28:16.071Z,4.50
2023-05-14T11:33:19.933Z,5.40
2023-05-14T11:38:22.599Z,5.10
2023-05-14T11:43:29.462Z,6.68
2023-05-14T11:48:32.805Z,5.40
2023-05-14T11:53:35.501Z,5.65
2023-05-14T11:58:38.055Z,5.63
2023-05-14T12:03:40.749Z,5.88
2023-05-14T12:08:43.398Z,5.38
2023-05-14T12:13:45.898Z,5.85
2023-05-14T12:18:48.379Z,4.50
2023-05-14T12:23:58.663Z,8.57
2023-05-14T12:29:02.797Z,15.40
2023-05-14T12:34:05.623Z,6.60
2023-05-14T12:39:10.364Z,6.15
2023-05-14T12:44:12.850Z,5.00
2023-05-14T12:49:15.289Z,5.72
2023-05-14T12:54:17.878Z,5.90
2023-05-14T12:59:20.308Z,7.20
2023-05-14T13:04:22.809Z,7.75
2023-05-14T13:09:25.564Z,4.72
2023-05-14T13:14:27.929Z,8.32
2023-05-14T13:19:30.436Z,5.15
2023-05-14T13:24:32.943Z,6.00
2023-05-14T13:29:35.785Z,5.20
2023-05-14T13:34:38.253Z,5.85
2023-05-14T13:39:41.198Z,6.10
2023-05-14T13:44:43.612Z,5.43
2023-05-14T13:49:46.148Z,5.15
2023-05-14T13:54:49.035Z,7.10
2023-05-14T13:59:51.533Z,4.78
2023-05-14T14:04:55.239Z,7.78
2023-05-14T14:09:57.799Z,4.82
2023-05-14T14:15:01.133Z,9.10
2023-05-14T14:20:05.967Z,7.30
2023-05-14T14:25:09.165Z,7.00
2023-05-14T14:30:17.681Z,6.47
2023-05-14T14:35:20.407Z,6.57
2023-05-14T14:40:24.104Z,5.10
2023-05-14T14:45:26.640Z,9.10
2023-05-14T14:50:29.108Z,6.70
2023-05-14T14:55:31.459Z,7.82
2023-05-14T15:00:34.177Z,6.32
2023-05-14T15:05:36.782Z,7.10
2023-05-14T15:10:39.400Z,7.93
2023-05-14T15:15:41.925Z,8.85
2023-05-14T15:20:44.693Z,9.05
2023-05-14T15:25:47.132Z,3.78
2023-05-14T15:30:49.676Z,9.13
2023-05-14T15:35:52.529Z,9.60
2023-05-14T15:40:55.041Z,6.05
2023-05-14T15:45:57.624Z,5.38
2023-05-14T15:51:00.136Z,5.25
2023-05-14T15:56:03.138Z,3.90
2023-05-14T16:01:05.951Z,8.13
2023-05-14T16:06:08.455Z,6.25
2023-05-14T16:11:10.910Z,3.53
2023-05-14T16:16:13.557Z,5.03
2023-05-14T16:21:16.110Z,4.75
2023-05-14T16:26:18.574Z,4.60
2023-05-14T16:31:21.102Z,5.03
2023-05-14T16:36:24.659Z,3.80
2023-05-14T16:41:27.129Z,4.57
2023-05-14T16:46:30.664Z,6.68
2023-05-14T16:51:33.678Z,3.50
2023-05-14T16:56:36.750Z,3.30
2023-05-14T17:01:39.358Z,1.90
2023-05-14T17:06:41.857Z,2.45
2023-05-14T17:11:44.412Z,2.05
2023-05-14T17:16:46.887Z,3.20
2023-05-14T17:21:49.370Z,2.40
2023-05-14T17:26:51.850Z,3.08
2023-05-14T17:31:55.703Z,3.60
2023-05-14T17:36:58.627Z,2.70
2023-05-14T17:42:01.161Z,4.10
2023-05-14T17:47:04.736Z,2.50
2023-05-14T17:52:07.576Z,2.47
2023-05-14T17:57:10.125Z,2.60
2023-05-14T18:02:12.466Z,2.60
2023-05-14T18:07:15.013Z,2.88
2023-05-14T18:12:17.455Z,2.60
2023-05-14T18:17:20.063Z,3.22
2023-05-14T18:22:22.650Z,3.25
2023-05-14T18:27:25.136Z,3.08
2023-05-14T18:32:27.646Z,3.10
2023-05-14T18:37:30.133Z,3.10
2023-05-14T18:42:33.524Z,5.68
2023-05-14T18:47:36.059Z,4.50
2023-05-14T18:52:38.748Z,3.17
2023-05-14T18:57:41.299Z,3.47
2023-05-14T19:02:43.745Z,2.90
2023-05-14T19:07:48.094Z,2.70
2023-05-14T19:12:50.517Z,4.07
2023-05-14T19:17:54.117Z,3.60
2023-05-14T19:22:56.683Z,3.93
2023-05-14T19:28:01.533Z,5.03
2023-05-14T19:33:04.369Z,4.30
2023-05-14T19:38:06.958Z,5.10
2023-05-14T19:43:10.276Z,4.40
2023-05-14T19:48:13.932Z,5.20
2023-05-14T19:53:16.431Z,6.60
2023-05-14T19:58:19.121Z,5.07
2023-05-14T20:03:26.045Z,4.65
2023-05-14T20:08:29.161Z,6.65
2023-05-14T20:13:36.441Z,7.60
2023-05-14T20:18:38.974Z,5.97
2023-05-14T20:23:41.536Z,4.80
2023-05-14T20:28:44.017Z,5.10
2023-05-14T20:33:46.557Z,5.40
2023-05-14T20:38:49.245Z,5.55
2023-05-14T20:43:51.655Z,6.60
2023-05-14T20:48:56.180Z,4.60
2023-05-14T20:53:58.587Z,5.45
2023-05-14T20:59:00.979Z,5.45
2023-05-14T21:04:03.745Z,4.57
2023-05-14T21:09:06.362Z,4.82
2023-05-14T21:14:08.959Z,5.88
2023-05-14T21:19:13.327Z,4.70
2023-05-14T21:24:17.195Z,5.38
2023-05-14T21:29:19.692Z,3.95
2023-05-14T21:34:22.250Z,6.30
2023-05-14T21:39:24.734Z,4.40
2023-05-14T21:44:27.261Z,4.80
2023-05-14T21:49:29.750Z,4.78
2023-05-14T21:54:32.166Z,4.28
2023-05-14T21:59:36.902Z,5.80
2023-05-14T22:04:39.569Z,4.60
2023-05-14T22:09:42.045Z,3.72
2023-05-14T22:14:44.581Z,5.00
2023-05-14T22:19:46.972Z,4.00
2023-05-14T22:24:49.617Z,4.97
2023-05-14T22:29:52.025Z,4.95
2023-05-14T22:34:54.883Z,5.53
2023-05-14T22:39:57.398Z,6.10
2023-05-14T22:44:59.888Z,4.63
2023-05-14T22:50:02.444Z,4.68
2023-05-14T22:55:05.979Z,4.90
2023-05-14T23:00:09.160Z,5.53
2023-05-14T23:05:12.144Z,4.07
2023-05-14T23:10:14.734Z,4.87
2023-05-14T23:15:17.345Z,5.50
2023-05-14T23:20:19.791Z,4.20
2023-05-14T23:25:22.454Z,4.60
2023-05-14T23:30:25.099Z,5.10
2023-05-14T23:35:27.717Z,5.10
2023-05-14T23:40:30.287Z,5.35
2023-05-14T23:45:32.902Z,5.55
2023-05-14T23:50:35.331Z,4.73
2023-05-14T23:55:37.894Z,5.10
